Nearby METAR Reports

KLWM - Lawrence,MA, USA
Distance from station: NE 12mi, 19km
Updated: Tue, 22-Jan-2019 3:54pm EST
Clear
Clear
 Wind from NW
Wind: NW 14 mph , 22 km/h, Gust: 24 mph , 39 km/h
Temperature: 25°F , -4°C
Wind Chill: 13°F , -11°C
Dew Point: -9°F , -23°C
Humidity: 21%
Barometer: 30.53 inHg , 1033.9 hPa
Clouds: Clear
Visibility: 10 miles , 16 km
2019/01/22 20:54 KLWM 222054Z 31012G21KT 10SM CLR M04/M23 A3053 RMK AO2 SLP340 T10441228 53012
KBED - Bedford,MA, USA
Distance from station: SSE 12mi, 19km
Updated: Tue, 22-Jan-2019 3:56pm EST
Clear
Clear
 Wind from NW
Wind: NW 17 mph , 28 km/h
Temperature: 27°F , -3°C
Wind Chill: 14°F , -10°C
Dew Point: -8°F , -22°C
Humidity: 22%
Barometer: 30.52 inHg , 1033.5 hPa
Clouds: Clear
Visibility: 10 miles , 16 km
2019/01/22 20:56 KBED 222056Z 31015KT 10SM CLR M03/M22 A3052 RMK AO2 SLP355 6//// T10281222 53012 PNO

Metar display script from Saratoga-Weather.org